WMKN/TGG METAR and TAF weather

Enter ICAO airport designator
Station Type Date Time Source
WMKN METAR 2019/10/15 21:00 UTC NOAA

WMKN 152100Z VRB02KT 9999 SCT022 BKN150 BKN300 25/24 Q1009


Station Type Date Time Source
WMKN Decoded METAR 2019/10/15 21:00 UTC NOAA

Station name not available
Oct 15, 2019 - 05:00 PM EDT / 2019.10.15 2100 UTC
Wind: Variable at 2 MPH (2 KT):0
Visibility: greater than 7 mile(s):0
Sky conditions: mostly cloudy
Temperature: 77 F (25 C)
Dew Point: 75 F (24 C)
Relative Humidity: 94%
Pressure (altimeter): 29.80 in. Hg (1009 hPa)
ob: WMKN 152100Z VRB02KT 9999 SCT022 BKN150 BKN300 25/24 Q1009
cycle: 21

Station Type Date Time Source
WMKN TAF 2019/10/15 18:00 UTC NOAA

TAF WMKN 151700Z 1518/1618 VRB03KT 9999 FEW022
BECMG 1518/1519 FEW017CB
BECMG 1600/1602 FEW018
BECMG 1603/1605 05005KT
TEMPO 1608/1612 6000 TSRA FEW010 FEW017CB SCT020

Example: see airport list